This is the latest recevied weather packets stored in our database for station/object F4WDE-10. If no packets are shown the sender has not sent any weather packets the latest 10 day(s).
| Time | Temp. | Humidity | Pressure | Rain* | Wind** | Luminosity | Snow |
|---|---|---|---|---|---|---|---|
| 1777999303 | 37.78° C | 26% | 957 hPa | - | - | - | - |
| 1777998402 | 35° C | 32% | 957 hPa | - | - | - | - |
| 1777997501 | 29.44° C | 40% | 957 hPa | - | - | - | - |
| 1777996600 | 25° C | 52% | 957 hPa | - | - | - | - |
| 1777995699 | 21.11° C | 63% | 958 hPa | - | - | - | - |
| 1777994798 | 22.22° C | 58% | 958 hPa | - | - | - | - |
| 1777993896 | 26.67° C | 47% | 957 hPa | - | - | - | - |
| 1777992995 | 26.11° C | 48% | 957 hPa | - | - | - | - |
| 1777992094 | 25.56° C | 49% | 957 hPa | - | - | - | - |
| 1777991193 | 25.56° C | 49% | 958 hPa | - | - | - | - |
| 1777989391 | 25.56° C | 50% | 958 hPa | - | - | - | - |
| 1777988490 | 24.44° C | 52% | 958 hPa | - | - | - | - |
| 1777987589 | 24.44° C | 52% | 958 hPa | - | - | - | - |
| 1777986687 | 25° C | 51% | 958 hPa | - | - | - | - |
| 1777985786 | 21.67° C | 66% | 958 hPa | - | - | - | - |
| 1777984885 | 20° C | 73% | 958 hPa | - | - | - | - |
| 1777983984 | 20° C | 72% | 958 hPa | - | - | - | - |
| 1777983083 | 21.11° C | 69% | 958 hPa | - | - | - | - |
| 1777982182 | 21.11° C | 67% | 958 hPa | - | - | - | - |
| 1777981281 | 21.11° C | 70% | 958 hPa | - | - | - | - |
| 1777980380 | 20.56° C | 71% | 958 hPa | - | - | - | - |
| 1777979479 | 19.44° C | 76% | 958 hPa | - | - | - | - |
| 1777978578 | 19.44° C | 80% | 958 hPa | - | - | - | - |
| 1777977676 | 18.33° C | 85% | 958 hPa | - | - | - | - |
| 1777976775 | 18.33° C | 85% | 958 hPa | - | - | - | - |
* Rain since midnight (hover to see other rain measurements)
** Current wind speed in m/s (hover to see current wind gust speed)